首页
METAR-TAF:

METAR-TAF

机场 :

阿斯塔纳国际机场

阿斯塔納, 哈萨克斯坦

纬度: 51-12N, 经度: 071-27E, 海拔: 355米

当前天气观测

该预报发布于37分钟前的01:30 UTC
风速4节,风向,在东南南转西南之间变化
温度 18°C
湿度 52%
气压 1015 hPa
能见度10公里或以上
1500米以下无云,无积雨云

METAR: UACC 310130Z 17002MPS 140V200 CAVOK 18/08 Q1015 R04/0///70 NOSIG RMK QFE730/0973

时间: 08:07 (02:07 UTC)

预报

该预报发布于3小时和7分钟前的23:00 UTC
预报有效从31日的 00点(UTC)到 31日的 24点(UTC)
风速4节,风向多变
能见度10公里或以上
1500米以下无云,无积雨云
短暂存在
从 31日的 00点(UTC)到 31日的 06点(UTC)
风速12节,风向
从 31日的 0600点(UTC)
风速16节,风向西南
能见度10公里或以上
散云层高于4000英尺
多云层高于10000英尺
短暂存在
从 31日的 06点(UTC)到 31日的 18点(UTC)
风速17节,风向西转西南,有时为27节阵风
几率 40% :
短暂存在
从 31日的 06点(UTC)到 31日的 18点(UTC)
雷暴

TAF: UACC 302300Z 3100/3124 VRB02MPS CAVOK TX34/3110Z TN15/3101Z TEMPO 3100/3106 19006MPS FM310600 23008MPS 9999 SCT040 BKN100 TEMPO 3106/3118 24009G14MPS PROB40 TEMPO 3106/3118 TS

超过4000个机场的气象观测和天气预报(METAR&TAF报告)。

可查询的气象台以黄色和红色小点在地图上表示。

将鼠标移到小点上方,可查看气象台名称。

然后点击查看天气观测和预报。

如需切换地图:点击带黑十字的绿色按钮放大地图;点击带横线的绿色按钮缩小地图;或者点击绿色箭头查看邻近地区的地图。


METAR-TAF: